createdAt,value
2022-08-30T00:02:20.839Z,101365.75
2022-08-30T00:04:48.495Z,101376.75
2022-08-30T00:07:15.636Z,101366.53
2022-08-30T00:09:42.717Z,101369.06
2022-08-30T00:12:10.710Z,101370.66
2022-08-30T00:14:38.036Z,101376.88
2022-08-30T00:17:05.206Z,101371.59
2022-08-30T00:19:32.661Z,101373.41
2022-08-30T00:21:59.890Z,101374.38
2022-08-30T00:24:27.175Z,101370.03
2022-08-30T00:26:54.364Z,101371.00
2022-08-30T00:29:21.532Z,101371.94
2022-08-30T00:31:48.837Z,101376.06
2022-08-30T00:34:16.726Z,101383.88
2022-08-30T00:36:46.752Z,101387.28
2022-08-30T00:39:13.928Z,101379.56
2022-08-30T00:41:41.132Z,101376.41
2022-08-30T00:44:08.445Z,101375.06
2022-08-30T00:46:35.661Z,101371.03
2022-08-30T00:49:04.262Z,101372.41
2022-08-30T00:51:31.788Z,101363.72
2022-08-30T00:53:59.251Z,101371.50
2022-08-30T00:56:26.806Z,101372.50
2022-08-30T00:58:55.839Z,101378.34
2022-08-30T01:01:23.247Z,101383.25
2022-08-30T01:03:50.757Z,101384.03
2022-08-30T01:06:18.141Z,101390.00
2022-08-30T01:08:46.722Z,101385.97
2022-08-30T01:11:16.537Z,101385.44
2022-08-30T01:13:44.144Z,101390.84
2022-08-30T01:16:11.378Z,101390.84
2022-08-30T01:18:39.619Z,101394.91
2022-08-30T01:21:35.281Z,101392.84
2022-08-30T01:24:03.157Z,101393.63
2022-08-30T01:26:30.996Z,101385.41
2022-08-30T01:29:03.165Z,101385.66
2022-08-30T01:31:30.410Z,101385.72
2022-08-30T01:33:57.542Z,101386.28
2022-08-30T01:36:25.343Z,101385.84
2022-08-30T01:38:55.702Z,101387.66
2022-08-30T01:41:29.742Z,101392.25
2022-08-30T01:43:59.724Z,101389.59
2022-08-30T01:46:31.202Z,101388.38
2022-08-30T01:48:58.630Z,101387.25
2022-08-30T01:51:27.781Z,101393.19
2022-08-30T01:53:55.663Z,101385.47
2022-08-30T01:56:24.367Z,101382.81
2022-08-30T01:58:51.963Z,101383.00
2022-08-30T02:01:22.297Z,101383.66
2022-08-30T02:03:49.543Z,101381.00
2022-08-30T02:06:19.879Z,101378.00
2022-08-30T02:08:47.229Z,101376.72
2022-08-30T02:11:15.813Z,101376.41
2022-08-30T02:13:44.444Z,101377.34
2022-08-30T02:16:14.427Z,101374.19
2022-08-30T02:18:41.774Z,101376.66
2022-08-30T02:21:08.898Z,101379.19
2022-08-30T02:23:36.547Z,101377.38
2022-08-30T02:26:04.565Z,101380.34
2022-08-30T02:28:31.698Z,101385.88
2022-08-30T02:31:00.104Z,101373.47
2022-08-30T02:33:27.390Z,101372.19
2022-08-30T02:35:56.090Z,101373.66
2022-08-30T02:38:23.805Z,101366.88
2022-08-30T02:40:51.590Z,101371.22
2022-08-30T02:43:18.931Z,101370.16
2022-08-30T02:45:46.094Z,101371.22
2022-08-30T02:48:13.241Z,101371.53
2022-08-30T02:50:42.926Z,101375.59
2022-08-30T02:53:10.225Z,101380.69
2022-08-30T02:55:41.206Z,101377.09
2022-08-30T02:58:10.515Z,101373.78
2022-08-30T03:00:38.715Z,101372.06
2022-08-30T03:03:07.447Z,101373.34
2022-08-30T03:05:35.029Z,101362.63
2022-08-30T03:08:05.125Z,101367.41
2022-08-30T03:10:32.246Z,101367.28
2022-08-30T03:12:59.466Z,101373.75
2022-08-30T03:15:27.009Z,101374.16
2022-08-30T03:17:54.940Z,101372.34
2022-08-30T03:20:24.954Z,101370.44
2022-08-30T03:22:52.474Z,101364.16
2022-08-30T03:25:23.271Z,101375.66
2022-08-30T03:27:51.066Z,101368.19
2022-08-30T03:30:19.841Z,101370.31
2022-08-30T03:32:47.299Z,101380.19
2022-08-30T03:35:15.112Z,101372.03
2022-08-30T03:37:42.329Z,101381.28
2022-08-30T03:40:11.366Z,101379.66
2022-08-30T03:42:38.556Z,101380.31
2022-08-30T03:45:07.640Z,101379.47
2022-08-30T03:47:34.801Z,101386.34
2022-08-30T03:50:02.293Z,101380.31
2022-08-30T03:52:29.437Z,101387.50
2022-08-30T03:54:56.660Z,101392.19
2022-08-30T03:57:24.597Z,101394.75
2022-08-30T03:59:51.993Z,101389.63
2022-08-30T04:02:19.943Z,101392.81
2022-08-30T04:04:47.224Z,101386.09
2022-08-30T04:07:14.413Z,101390.44
2022-08-30T04:09:41.868Z,101393.88
2022-08-30T04:12:09.289Z,101395.03
2022-08-30T04:14:36.393Z,101398.31
2022-08-30T04:17:03.608Z,101403.44
2022-08-30T04:19:30.856Z,101398.97
2022-08-30T04:21:58.011Z,101405.22
2022-08-30T04:24:25.419Z,101409.66
2022-08-30T04:26:52.899Z,101409.59
2022-08-30T04:29:20.024Z,101404.78
2022-08-30T04:31:47.228Z,101405.53
2022-08-30T04:34:14.841Z,101408.81
2022-08-30T04:36:41.937Z,101407.13
2022-08-30T04:39:16.269Z,101407.66
2022-08-30T04:41:43.428Z,101415.75
2022-08-30T04:44:14.231Z,101417.31
2022-08-30T04:46:47.166Z,101410.22
2022-08-30T04:49:14.651Z,101424.97
2022-08-30T04:51:41.905Z,101423.75
2022-08-30T04:54:09.053Z,101423.09
2022-08-30T04:56:36.468Z,101422.25
2022-08-30T04:59:04.244Z,101424.97
2022-08-30T05:01:44.491Z,101421.41
2022-08-30T05:04:12.510Z,101416.81
2022-08-30T05:06:39.620Z,101418.44
2022-08-30T05:09:06.742Z,101424.06
2022-08-30T05:11:33.883Z,101428.59
2022-08-30T05:14:00.975Z,101429.34
2022-08-30T05:16:29.157Z,101425.81
2022-08-30T05:18:56.379Z,101425.75
2022-08-30T05:21:26.537Z,101429.84
2022-08-30T05:23:57.860Z,101438.84
2022-08-30T05:26:30.932Z,101436.84
2022-08-30T05:28:58.559Z,101444.94
2022-08-30T05:31:28.852Z,101446.50
2022-08-30T05:33:56.473Z,101445.28
2022-08-30T05:36:26.363Z,101441.25
2022-08-30T05:38:54.833Z,101438.13
2022-08-30T05:41:23.175Z,101449.16
2022-08-30T05:43:55.780Z,101444.50
2022-08-30T05:46:23.636Z,101439.19
2022-08-30T05:48:51.316Z,101441.66
2022-08-30T05:51:23.457Z,101443.88
2022-08-30T05:53:53.149Z,101441.56
2022-08-30T05:56:25.962Z,101441.22
2022-08-30T05:58:54.496Z,101442.19
2022-08-30T06:01:33.304Z,101446.22
2022-08-30T06:04:04.042Z,101451.09
2022-08-30T06:06:33.772Z,101446.22
2022-08-30T06:09:00.985Z,101449.31
2022-08-30T06:11:30.999Z,101451.56
2022-08-30T06:13:58.136Z,101446.75
2022-08-30T06:16:26.990Z,101448.25
2022-08-30T06:18:56.241Z,101450.66
2022-08-30T06:21:26.676Z,101447.81
2022-08-30T06:23:54.311Z,101448.44
2022-08-30T06:26:21.537Z,101449.81
2022-08-30T06:28:49.237Z,101459.16
2022-08-30T06:31:18.741Z,101451.59
2022-08-30T06:33:46.915Z,101454.91
2022-08-30T06:36:17.471Z,101455.66
2022-08-30T06:38:45.310Z,101463.50
2022-08-30T06:41:19.005Z,101463.19
2022-08-30T06:43:49.092Z,101469.38
2022-08-30T06:46:22.680Z,101468.75
2022-08-30T06:48:49.884Z,101465.97
2022-08-30T06:51:21.635Z,101465.97
2022-08-30T06:53:50.309Z,101472.97
2022-08-30T06:56:18.917Z,101473.81
2022-08-30T06:58:47.244Z,101468.81
2022-08-30T07:01:16.768Z,101473.59
2022-08-30T07:03:44.261Z,101471.66
2022-08-30T07:06:11.491Z,101479.94
2022-08-30T07:08:38.779Z,101483.72
2022-08-30T07:11:07.689Z,101475.28
2022-08-30T07:13:37.065Z,101471.44
2022-08-30T07:16:15.024Z,101473.91
2022-08-30T07:18:52.314Z,101477.91
2022-08-30T07:21:22.435Z,101471.06
2022-08-30T07:23:53.379Z,101476.16
2022-08-30T07:26:32.276Z,101480.94
2022-08-30T07:29:00.223Z,101481.19
2022-08-30T07:31:27.641Z,101487.75
2022-08-30T07:33:55.275Z,101483.72
2022-08-30T07:36:23.480Z,101487.09
2022-08-30T07:38:51.412Z,101488.56
2022-08-30T07:41:25.543Z,101487.25
2022-08-30T07:43:53.028Z,101486.41
2022-08-30T07:46:21.446Z,101494.03
2022-08-30T07:48:48.988Z,101492.84
2022-08-30T07:51:19.553Z,101491.66
2022-08-30T07:53:47.784Z,101502.19
2022-08-30T07:56:15.634Z,101508.25
2022-08-30T07:58:43.905Z,101507.06
2022-08-30T08:01:12.949Z,101506.81
2022-08-30T08:03:41.475Z,101508.53
2022-08-30T08:06:10.947Z,101509.72
2022-08-30T08:08:38.975Z,101510.13
2022-08-30T08:11:08.815Z,101516.56
2022-08-30T08:13:52.631Z,101510.13
2022-08-30T08:16:27.215Z,101505.28
2022-08-30T08:18:55.064Z,101511.50
2022-08-30T08:21:24.410Z,101502.03
2022-08-30T08:23:52.123Z,101503.97
2022-08-30T08:26:20.546Z,101511.03
2022-08-30T08:28:47.820Z,101519.78
2022-08-30T08:31:19.030Z,101509.59
2022-08-30T08:33:47.744Z,101518.78
2022-08-30T08:36:21.814Z,101521.44
2022-08-30T08:38:49.282Z,101522.63
2022-08-30T08:41:43.707Z,101526.50
2022-08-30T08:44:25.037Z,101529.66
2022-08-30T08:47:00.979Z,101538.28
2022-08-30T08:49:30.548Z,101534.00
2022-08-30T08:52:17.350Z,101531.94
2022-08-30T08:54:52.893Z,101537.75
2022-08-30T08:57:24.697Z,101531.28
2022-08-30T08:59:54.491Z,101536.25
2022-08-30T09:02:28.713Z,101535.16
2022-08-30T09:05:01.747Z,101534.31
2022-08-30T09:07:47.035Z,101534.56
2022-08-30T09:10:14.373Z,101542.56
2022-08-30T09:12:41.735Z,101541.50
2022-08-30T09:15:24.816Z,101529.34
2022-08-30T09:18:04.541Z,101537.38
2022-08-30T09:20:41.533Z,101538.28
2022-08-30T09:23:28.772Z,101538.41
2022-08-30T09:26:02.114Z,101542.06
2022-08-30T09:29:05.236Z,101541.91
2022-08-30T09:32:01.283Z,101544.13
2022-08-30T09:34:46.383Z,101550.78
2022-08-30T09:37:32.490Z,101543.38
2022-08-30T09:40:00.609Z,101547.84
2022-08-30T09:42:34.985Z,101546.28
2022-08-30T09:45:22.323Z,101548.22
2022-08-30T09:47:58.783Z,101543.59
2022-08-30T09:50:47.752Z,101545.53
2022-08-30T09:57:33.573Z,101545.34
2022-08-30T10:00:16.730Z,101544.44
2022-08-30T10:02:59.356Z,101541.19
2022-08-30T10:05:38.174Z,101540.88
2022-08-30T10:08:30.642Z,101541.66
2022-08-30T10:11:37.551Z,101546.72
2022-08-30T10:14:33.905Z,101537.16
2022-08-30T10:17:13.174Z,101542.81
2022-08-30T10:20:16.259Z,101544.00
2022-08-30T10:23:10.972Z,101541.78
2022-08-30T10:25:39.129Z,101539.56
2022-08-30T10:28:35.683Z,101542.00
2022-08-30T10:31:07.148Z,101537.53
2022-08-30T10:33:40.760Z,101532.22
2022-08-30T10:36:11.220Z,101531.56
2022-08-30T10:38:40.809Z,101524.16
2022-08-30T10:41:20.027Z,101526.00
2022-08-30T10:44:15.850Z,101521.09
2022-08-30T10:46:58.260Z,101524.66
2022-08-30T10:49:27.295Z,101519.47
2022-08-30T10:51:58.888Z,101522.31
2022-08-30T10:54:49.042Z,101522.47
2022-08-30T10:57:17.225Z,101522.19
2022-08-30T10:59:50.141Z,101525.28
2022-08-30T11:02:17.323Z,101523.00
2022-08-30T11:04:53.140Z,101524.84
2022-08-30T11:07:57.622Z,101520.63
2022-08-30T11:10:49.869Z,101518.47
2022-08-30T11:13:29.737Z,101521.56
2022-08-30T11:16:06.526Z,101522.72
2022-08-30T11:18:43.422Z,101523.41
2022-08-30T11:24:02.046Z,101528.34
2022-08-30T11:26:48.275Z,101523.22
2022-08-30T11:29:33.502Z,101523.94
2022-08-30T11:32:25.103Z,101513.06
2022-08-30T11:34:57.902Z,101509.28
2022-08-30T11:37:44.362Z,101502.94
2022-08-30T11:40:20.338Z,101505.75
2022-08-30T11:42:49.662Z,101497.63
2022-08-30T11:45:28.380Z,101493.63
2022-08-30T11:48:05.678Z,101489.31
2022-08-30T11:50:55.537Z,101485.16
2022-08-30T11:53:31.688Z,101483.59
2022-08-30T11:56:17.406Z,101486.38
2022-08-30T11:58:58.469Z,101481.44
2022-08-30T12:01:49.730Z,101485.66
2022-08-30T12:04:19.656Z,101479.97
2022-08-30T12:06:51.249Z,101484.91
2022-08-30T12:09:21.013Z,101484.84
2022-08-30T12:11:56.984Z,101484.00
2022-08-30T12:14:52.647Z,101485.06
2022-08-30T12:18:03.485Z,101485.69
2022-08-30T12:20:48.532Z,101483.06
2022-08-30T12:23:27.122Z,101472.72
2022-08-30T12:26:13.163Z,101477.97
2022-08-30T12:28:42.113Z,101469.75
2022-08-30T12:31:16.417Z,101483.44
2022-08-30T12:33:48.906Z,101472.50
2022-08-30T12:36:40.586Z,101472.03
2022-08-30T12:39:17.017Z,101473.78
2022-08-30T12:41:45.210Z,101465.06
2022-08-30T12:44:21.120Z,101464.16
2022-08-30T12:46:50.428Z,101454.50
2022-08-30T12:49:18.774Z,101455.78
2022-08-30T12:51:46.358Z,101460.78
2022-08-30T12:54:29.911Z,101463.38
2022-08-30T12:57:01.414Z,101456.00
2022-08-30T12:59:58.144Z,101454.25
2022-08-30T13:02:41.861Z,101459.44
2022-08-30T13:05:27.645Z,101459.78
2022-08-30T13:08:12.197Z,101451.41
2022-08-30T13:10:49.503Z,101449.41
2022-08-30T13:13:36.012Z,101445.56
2022-08-30T13:16:31.272Z,101443.97
2022-08-30T13:19:28.187Z,101432.97
2022-08-30T13:21:57.223Z,101434.66
2022-08-30T13:24:25.852Z,101429.69
2022-08-30T13:26:58.844Z,101430.81
2022-08-30T13:29:28.717Z,101425.16
2022-08-30T13:31:56.008Z,101436.44
2022-08-30T13:34:23.561Z,101430.75
2022-08-30T13:36:55.691Z,101428.44
2022-08-30T13:39:23.706Z,101417.94
2022-08-30T13:41:51.833Z,101430.38
2022-08-30T13:44:19.156Z,101429.84
2022-08-30T13:46:54.169Z,101424.91
2022-08-30T13:52:22.335Z,101432.28
2022-08-30T13:54:51.238Z,101433.38
2022-08-30T14:00:12.602Z,101432.56
2022-08-30T14:02:46.334Z,101425.31
2022-08-30T14:05:37.252Z,101429.28
2022-08-30T14:08:00.814Z,101427.28
2022-08-30T14:10:31.505Z,101422.16
2022-08-30T14:13:07.747Z,101422.53
2022-08-30T14:15:39.540Z,101424.47
2022-08-30T14:18:08.074Z,101424.72
2022-08-30T14:20:38.827Z,101422.38
2022-08-30T14:23:09.912Z,101422.00
2022-08-30T14:25:37.743Z,101422.03
2022-08-30T14:28:09.742Z,101429.09
2022-08-30T14:30:37.196Z,101438.03
2022-08-30T14:33:04.726Z,101436.63
2022-08-30T14:35:32.930Z,101435.75
2022-08-30T14:38:01.128Z,101432.88
2022-08-30T14:40:28.420Z,101442.59
2022-08-30T14:42:55.768Z,101431.81
2022-08-30T14:45:22.862Z,101436.31
2022-08-30T14:47:51.289Z,101432.66
2022-08-30T14:50:18.405Z,101431.53
2022-08-30T14:52:46.447Z,101436.59
2022-08-30T14:55:13.724Z,101434.88
2022-08-30T14:57:41.080Z,101431.97
2022-08-30T15:00:11.357Z,101436.03
2022-08-30T15:02:38.516Z,101440.19
2022-08-30T15:05:06.900Z,101441.03
2022-08-30T15:07:36.349Z,101436.72
2022-08-30T15:10:05.731Z,101440.34
2022-08-30T15:12:32.884Z,101449.16
2022-08-30T15:15:00.128Z,101441.09
2022-08-30T15:17:27.516Z,101435.06
2022-08-30T15:19:55.281Z,101437.50
2022-08-30T15:22:22.519Z,101436.16
2022-08-30T15:24:50.866Z,101432.28
2022-08-30T15:27:18.291Z,101429.00
2022-08-30T15:29:45.427Z,101433.66
2022-08-30T15:32:12.775Z,101436.72
2022-08-30T15:34:40.048Z,101440.34
2022-08-30T15:37:07.366Z,101436.75
2022-08-30T15:39:35.136Z,101436.91
2022-08-30T15:42:02.485Z,101424.47
2022-08-30T15:44:32.667Z,101427.22
2022-08-30T15:47:01.882Z,101422.94
2022-08-30T15:49:29.535Z,101423.75
2022-08-30T15:52:00.956Z,101425.16
2022-08-30T15:54:28.592Z,101423.75
2022-08-30T15:56:59.398Z,101414.41
2022-08-30T15:59:28.295Z,101420.00
2022-08-30T16:01:55.489Z,101418.31
2022-08-30T16:04:24.801Z,101421.81
2022-08-30T16:06:53.694Z,101418.84
2022-08-30T16:09:21.686Z,101419.22
2022-08-30T16:11:49.219Z,101410.47
2022-08-30T16:14:16.727Z,101415.69
2022-08-30T16:16:44.214Z,101411.25
2022-08-30T16:19:11.749Z,101422.53
2022-08-30T16:21:39.863Z,101411.19
2022-08-30T16:24:10.526Z,101421.75
2022-08-30T16:26:37.940Z,101415.31
2022-08-30T16:29:07.302Z,101415.31
2022-08-30T16:31:36.117Z,101411.16
2022-08-30T16:34:04.515Z,101422.16
2022-08-30T16:36:33.230Z,101412.19
2022-08-30T16:39:00.773Z,101414.66
2022-08-30T16:41:28.502Z,101412.25
2022-08-30T16:43:56.068Z,101405.41
2022-08-30T16:46:27.245Z,101415.63
2022-08-30T16:48:57.936Z,101409.88
2022-08-30T16:51:27.364Z,101407.50
2022-08-30T16:53:58.078Z,101408.84
2022-08-30T16:56:28.096Z,101408.91
2022-08-30T16:59:01.080Z,101403.63
2022-08-30T17:01:31.815Z,101405.78
2022-08-30T17:04:00.096Z,101407.53
2022-08-30T17:06:27.714Z,101396.16
2022-08-30T17:08:56.114Z,101410.84
2022-08-30T17:11:24.557Z,101406.75
2022-08-30T17:13:52.557Z,101406.19
2022-08-30T17:16:27.436Z,101407.72
2022-08-30T17:18:59.866Z,101412.69
2022-08-30T17:21:29.139Z,101413.56
2022-08-30T17:26:44.717Z,101421.59
2022-08-30T17:29:15.807Z,101420.22
2022-08-30T17:31:46.510Z,101423.59
2022-08-30T17:34:21.818Z,101428.00
2022-08-30T17:36:50.742Z,101427.44
2022-08-30T17:39:18.430Z,101436.88
2022-08-30T17:41:50.720Z,101437.41
2022-08-30T17:44:20.234Z,101435.97
2022-08-30T17:46:47.697Z,101434.72
2022-08-30T17:49:15.086Z,101446.13
2022-08-30T17:51:43.547Z,101445.09
2022-08-30T17:54:12.648Z,101445.09
2022-08-30T17:56:41.567Z,101447.63
2022-08-30T17:59:10.768Z,101449.88
2022-08-30T18:01:38.049Z,101452.13
2022-08-30T18:04:06.555Z,101450.44
2022-08-30T18:06:35.439Z,101447.91
2022-08-30T18:09:06.655Z,101460.69
2022-08-30T18:11:36.158Z,101460.78
2022-08-30T18:14:04.640Z,101464.28
2022-08-30T18:16:33.464Z,101464.69
2022-08-30T18:19:09.490Z,101474.78
2022-08-30T18:21:37.796Z,101472.78
2022-08-30T18:24:06.073Z,101475.53
2022-08-30T18:26:33.671Z,101480.38
2022-08-30T18:29:02.002Z,101477.09
2022-08-30T18:31:29.656Z,101480.75
2022-08-30T18:34:00.189Z,101481.03
2022-08-30T18:36:28.676Z,101481.22
2022-08-30T18:38:56.036Z,101489.31
2022-08-30T18:41:25.850Z,101489.94
2022-08-30T18:44:11.071Z,101494.81
2022-08-30T18:46:55.791Z,101495.66
2022-08-30T18:49:27.477Z,101500.56
2022-08-30T18:51:54.820Z,101499.09
2022-08-30T18:54:22.618Z,101501.16
2022-08-30T18:56:51.778Z,101507.72
2022-08-30T18:59:19.642Z,101509.81
2022-08-30T19:01:48.609Z,101500.75
2022-08-30T19:04:22.534Z,101500.91
2022-08-30T19:06:57.578Z,101499.81
2022-08-30T19:09:26.658Z,101497.84
2022-08-30T19:11:55.053Z,101493.03
2022-08-30T19:14:22.383Z,101481.03
2022-08-30T19:16:49.566Z,101482.03
2022-08-30T19:19:18.688Z,101480.91
2022-08-30T19:21:45.957Z,101481.53
2022-08-30T19:24:13.236Z,101478.38
2022-08-30T19:26:48.701Z,101478.41
2022-08-30T19:29:16.388Z,101472.00
2022-08-30T19:31:43.999Z,101482.75
2022-08-30T19:34:11.933Z,101481.28
2022-08-30T19:36:39.493Z,101479.97
2022-08-30T19:39:07.914Z,101481.56
2022-08-30T19:41:36.922Z,101490.41
2022-08-30T19:44:05.510Z,101486.50
2022-08-30T19:46:32.836Z,101485.28
2022-08-30T19:49:03.872Z,101489.19
2022-08-30T19:51:31.499Z,101495.47
2022-08-30T19:54:01.475Z,101490.63
2022-08-30T19:57:21.351Z,101492.06
2022-08-30T19:59:23.193Z,101490.38
2022-08-30T20:01:51.309Z,101487.69
2022-08-30T20:04:19.735Z,101485.78
2022-08-30T20:06:48.639Z,101497.91
2022-08-30T20:09:17.329Z,101496.09
2022-08-30T20:11:45.804Z,101492.44
2022-08-30T20:14:18.100Z,101492.56
2022-08-30T20:16:47.491Z,101495.56
2022-08-30T20:19:17.081Z,101499.16
2022-08-30T20:21:46.362Z,101496.13
2022-08-30T20:24:14.510Z,101509.91
2022-08-30T20:24:25.100Z,101411.59
2022-08-30T20:26:41.988Z,101499.25
2022-08-30T20:29:09.399Z,101507.00
2022-08-30T20:31:36.915Z,101507.63
2022-08-30T20:34:04.514Z,101511.00
2022-08-30T20:36:33.674Z,101510.88
2022-08-30T20:39:02.108Z,101509.75
2022-08-30T20:41:31.205Z,101506.50
2022-08-30T20:43:58.448Z,101517.69
2022-08-30T20:46:27.029Z,101519.50
2022-08-30T20:48:56.852Z,101522.03
2022-08-30T20:51:24.243Z,101515.66
2022-08-30T20:53:51.804Z,101514.00
2022-08-30T20:56:21.616Z,101512.41
2022-08-30T20:58:50.178Z,101519.94
2022-08-30T21:01:18.472Z,101520.28
2022-08-30T21:03:47.621Z,101519.44
2022-08-30T21:06:16.557Z,101523.88
2022-08-30T21:08:43.960Z,101520.28
2022-08-30T21:11:11.496Z,101525.31
2022-08-30T21:13:39.947Z,101518.41
2022-08-30T21:16:07.714Z,101526.41
2022-08-30T21:18:36.555Z,101523.53
2022-08-30T21:21:12.469Z,101528.34
2022-08-30T21:23:39.957Z,101522.81
2022-08-30T21:26:07.849Z,101519.41
2022-08-30T21:28:35.599Z,101521.31
2022-08-30T21:31:07.818Z,101526.44
2022-08-30T21:33:35.616Z,101527.94
2022-08-30T21:36:21.744Z,101534.31
2022-08-30T21:38:48.878Z,101531.78
2022-08-30T21:41:16.136Z,101541.34
2022-08-30T21:43:43.447Z,101538.38
2022-08-30T21:46:11.495Z,101535.09
2022-08-30T21:48:38.822Z,101539.44
2022-08-30T21:51:07.240Z,101532.75
2022-08-30T21:53:34.563Z,101534.44
2022-08-30T21:56:13.119Z,101533.72
2022-08-30T21:58:42.688Z,101534.34
2022-08-30T22:01:15.785Z,101537.53
2022-08-30T22:03:43.866Z,101535.81
2022-08-30T22:06:12.471Z,101534.66
2022-08-30T22:08:42.087Z,101543.50
2022-08-30T22:11:11.537Z,101538.50
2022-08-30T22:13:42.691Z,101539.34
2022-08-30T22:16:12.189Z,101539.34
2022-08-30T22:18:40.767Z,101540.31
2022-08-30T22:21:08.740Z,101537.53
2022-08-30T22:23:38.148Z,101535.84
2022-08-30T22:26:08.126Z,101529.13
2022-08-30T22:28:36.329Z,101534.66
2022-08-30T22:31:08.367Z,101533.63
2022-08-30T22:33:36.557Z,101547.00
2022-08-30T22:36:16.726Z,101546.91
2022-08-30T22:38:44.216Z,101539.00
2022-08-30T22:41:14.303Z,101545.28
2022-08-30T22:43:41.804Z,101549.22
2022-08-30T22:46:09.216Z,101551.34
2022-08-30T22:48:38.057Z,101548.44
2022-08-30T22:51:05.526Z,101551.88
2022-08-30T22:53:33.100Z,101551.53
2022-08-30T22:56:01.256Z,101556.44
2022-08-30T22:58:29.963Z,101555.47
2022-08-30T23:00:57.172Z,101558.00
2022-08-30T23:03:27.883Z,101557.81
2022-08-30T23:05:55.030Z,101564.16
2022-08-30T23:08:22.762Z,101557.78
2022-08-30T23:10:49.949Z,101562.00
2022-08-30T23:13:17.238Z,101566.06
2022-08-30T23:15:44.570Z,101566.47
2022-08-30T23:18:11.729Z,101557.44
2022-08-30T23:20:38.916Z,101557.25
2022-08-30T23:23:06.016Z,101563.28
2022-08-30T23:25:52.943Z,101555.53
2022-08-30T23:28:39.744Z,101555.19
2022-08-30T23:31:34.115Z,101563.56
2022-08-30T23:34:20.665Z,101564.16
2022-08-30T23:37:06.504Z,101564.56
2022-08-30T23:39:52.411Z,101568.38
2022-08-30T23:42:38.152Z,101565.84
2022-08-30T23:45:24.064Z,101564.03
2022-08-30T23:48:09.788Z,101563.34
2022-08-30T23:50:55.634Z,101564.03
2022-08-30T23:53:43.883Z,101559.19
2022-08-30T23:56:31.558Z,101566.47
2022-08-30T23:59:17.640Z,101559.19
